sensor_id;sensor_type;location;lat;lon;timestamp;P1;durP1;ratioP1;P2;durP2;ratioP2
665;SDS011;315;48.738;9.126;2024-02-28T00:00:23;21.23;;;18.33;;
665;SDS011;315;48.738;9.126;2024-02-28T00:02:49;21.63;;;17.03;;
665;SDS011;315;48.738;9.126;2024-02-28T00:05:14;21.13;;;16.50;;
665;SDS011;315;48.738;9.126;2024-02-28T00:07:40;21.70;;;18.40;;
665;SDS011;315;48.738;9.126;2024-02-28T00:10:05;23.50;;;18.03;;
665;SDS011;315;48.738;9.126;2024-02-28T00:12:31;25.93;;;17.80;;
665;SDS011;315;48.738;9.126;2024-02-28T00:14:56;22.30;;;17.80;;
665;SDS011;315;48.738;9.126;2024-02-28T00:17:22;21.97;;;17.87;;
665;SDS011;315;48.738;9.126;2024-02-28T00:19:47;23.97;;;18.97;;
665;SDS011;315;48.738;9.126;2024-02-28T00:22:13;24.40;;;17.87;;
665;SDS011;315;48.738;9.126;2024-02-28T00:24:39;22.40;;;19.60;;
665;SDS011;315;48.738;9.126;2024-02-28T00:27:05;23.07;;;18.73;;
665;SDS011;315;48.738;9.126;2024-02-28T00:29:30;21.80;;;17.20;;
665;SDS011;315;48.738;9.126;2024-02-28T00:31:56;20.20;;;17.47;;
665;SDS011;315;48.738;9.126;2024-02-28T00:34:21;21.40;;;17.83;;
665;SDS011;315;48.738;9.126;2024-02-28T00:36:47;21.87;;;17.30;;
665;SDS011;315;48.738;9.126;2024-02-28T00:39:12;22.90;;;19.00;;
665;SDS011;315;48.738;9.126;2024-02-28T00:41:38;22.10;;;17.70;;
665;SDS011;315;48.738;9.126;2024-02-28T00:44:03;22.00;;;18.00;;
665;SDS011;315;48.738;9.126;2024-02-28T00:46:29;22.27;;;18.10;;
665;SDS011;315;48.738;9.126;2024-02-28T00:48:54;21.63;;;16.93;;
665;SDS011;315;48.738;9.126;2024-02-28T00:51:20;22.73;;;18.47;;
665;SDS011;315;48.738;9.126;2024-02-28T00:53:45;19.90;;;17.80;;
665;SDS011;315;48.738;9.126;2024-02-28T00:56:11;25.47;;;19.40;;
665;SDS011;315;48.738;9.126;2024-02-28T00:58:36;24.23;;;19.27;;
665;SDS011;315;48.738;9.126;2024-02-28T01:01:03;21.77;;;17.60;;
665;SDS011;315;48.738;9.126;2024-02-28T01:03:29;25.90;;;18.80;;
665;SDS011;315;48.738;9.126;2024-02-28T01:05:54;25.03;;;19.50;;
665;SDS011;315;48.738;9.126;2024-02-28T01:08:20;24.40;;;18.30;;
665;SDS011;315;48.738;9.126;2024-02-28T01:10:46;22.27;;;17.23;;
665;SDS011;315;48.738;9.126;2024-02-28T01:13:11;23.73;;;17.23;;
665;SDS011;315;48.738;9.126;2024-02-28T01:15:39;21.27;;;16.30;;
665;SDS011;315;48.738;9.126;2024-02-28T01:18:06;24.50;;;18.77;;
665;SDS011;315;48.738;9.126;2024-02-28T01:20:31;21.70;;;18.50;;
665;SDS011;315;48.738;9.126;2024-02-28T01:22:57;22.73;;;18.03;;
665;SDS011;315;48.738;9.126;2024-02-28T01:25:22;25.43;;;18.90;;
665;SDS011;315;48.738;9.126;2024-02-28T01:27:47;26.93;;;20.17;;
665;SDS011;315;48.738;9.126;2024-02-28T01:30:13;23.70;;;18.87;;
665;SDS011;315;48.738;9.126;2024-02-28T01:32:39;25.10;;;18.10;;
665;SDS011;315;48.738;9.126;2024-02-28T01:35:04;23.60;;;18.87;;
665;SDS011;315;48.738;9.126;2024-02-28T01:37:30;23.43;;;18.40;;
665;SDS011;315;48.738;9.126;2024-02-28T01:39:56;24.30;;;18.77;;
665;SDS011;315;48.738;9.126;2024-02-28T01:42:21;25.07;;;19.97;;
665;SDS011;315;48.738;9.126;2024-02-28T01:44:47;25.23;;;20.00;;
665;SDS011;315;48.738;9.126;2024-02-28T01:47:14;25.23;;;19.27;;
665;SDS011;315;48.738;9.126;2024-02-28T01:49:40;26.40;;;19.93;;
665;SDS011;315;48.738;9.126;2024-02-28T01:52:07;22.53;;;19.73;;
665;SDS011;315;48.738;9.126;2024-02-28T01:54:33;25.93;;;20.77;;
665;SDS011;315;48.738;9.126;2024-02-28T01:57:00;23.43;;;19.20;;
665;SDS011;315;48.738;9.126;2024-02-28T01:59:25;24.03;;;18.80;;
665;SDS011;315;48.738;9.126;2024-02-28T02:01:52;25.17;;;19.17;;
665;SDS011;315;48.738;9.126;2024-02-28T02:04:19;23.93;;;20.50;;
665;SDS011;315;48.738;9.126;2024-02-28T02:06:44;25.63;;;18.10;;
665;SDS011;315;48.738;9.126;2024-02-28T02:09:12;22.47;;;18.00;;
665;SDS011;315;48.738;9.126;2024-02-28T02:11:38;23.10;;;18.77;;
665;SDS011;315;48.738;9.126;2024-02-28T02:14:04;25.47;;;19.47;;
665;SDS011;315;48.738;9.126;2024-02-28T02:16:29;24.77;;;18.70;;
665;SDS011;315;48.738;9.126;2024-02-28T02:18:55;26.50;;;19.97;;
665;SDS011;315;48.738;9.126;2024-02-28T02:21:24;24.90;;;19.80;;
665;SDS011;315;48.738;9.126;2024-02-28T02:23:55;27.30;;;19.57;;
665;SDS011;315;48.738;9.126;2024-02-28T02:26:21;26.10;;;19.10;;
665;SDS011;315;48.738;9.126;2024-02-28T02:28:46;28.87;;;20.73;;
665;SDS011;315;48.738;9.126;2024-02-28T02:31:12;26.17;;;19.97;;
665;SDS011;315;48.738;9.126;2024-02-28T02:33:38;23.70;;;17.53;;
665;SDS011;315;48.738;9.126;2024-02-28T02:36:04;28.77;;;19.50;;
665;SDS011;315;48.738;9.126;2024-02-28T02:38:29;29.70;;;20.10;;
665;SDS011;315;48.738;9.126;2024-02-28T02:40:55;27.30;;;19.67;;
665;SDS011;315;48.738;9.126;2024-02-28T02:43:20;25.40;;;20.17;;
665;SDS011;315;48.738;9.126;2024-02-28T02:45:46;29.37;;;20.67;;
665;SDS011;315;48.738;9.126;2024-02-28T02:48:12;28.83;;;20.90;;
665;SDS011;315;48.738;9.126;2024-02-28T02:50:37;28.27;;;20.23;;
665;SDS011;315;48.738;9.126;2024-02-28T02:53:03;24.50;;;19.60;;
665;SDS011;315;48.738;9.126;2024-02-28T02:55:29;23.70;;;18.70;;
665;SDS011;315;48.738;9.126;2024-02-28T02:57:55;27.50;;;21.63;;
665;SDS011;315;48.738;9.126;2024-02-28T03:00:21;27.57;;;21.23;;
665;SDS011;315;48.738;9.126;2024-02-28T03:02:46;24.07;;;20.23;;
665;SDS011;315;48.738;9.126;2024-02-28T03:05:12;26.73;;;19.80;;
665;SDS011;315;48.738;9.126;2024-02-28T03:07:38;25.13;;;19.43;;
665;SDS011;315;48.738;9.126;2024-02-28T03:10:03;24.00;;;19.90;;
665;SDS011;315;48.738;9.126;2024-02-28T03:12:29;22.50;;;18.67;;
665;SDS011;315;48.738;9.126;2024-02-28T03:14:55;26.50;;;19.83;;
665;SDS011;315;48.738;9.126;2024-02-28T03:17:20;28.67;;;21.63;;
665;SDS011;315;48.738;9.126;2024-02-28T03:19:46;22.30;;;18.30;;
665;SDS011;315;48.738;9.126;2024-02-28T03:22:12;26.93;;;19.40;;
665;SDS011;315;48.738;9.126;2024-02-28T03:24:37;23.77;;;19.90;;
665;SDS011;315;48.738;9.126;2024-02-28T03:27:03;22.93;;;19.40;;
665;SDS011;315;48.738;9.126;2024-02-28T03:29:29;23.40;;;18.87;;
665;SDS011;315;48.738;9.126;2024-02-28T03:31:54;26.07;;;20.40;;
665;SDS011;315;48.738;9.126;2024-02-28T03:34:20;27.00;;;20.73;;
665;SDS011;315;48.738;9.126;2024-02-28T03:36:46;27.77;;;20.83;;
665;SDS011;315;48.738;9.126;2024-02-28T03:39:11;24.57;;;18.97;;
665;SDS011;315;48.738;9.126;2024-02-28T03:41:37;28.10;;;19.87;;
665;SDS011;315;48.738;9.126;2024-02-28T03:44:03;25.33;;;19.10;;
665;SDS011;315;48.738;9.126;2024-02-28T03:46:29;26.40;;;19.70;;
665;SDS011;315;48.738;9.126;2024-02-28T03:48:54;25.90;;;20.67;;
665;SDS011;315;48.738;9.126;2024-02-28T03:51:20;24.73;;;19.67;;
665;SDS011;315;48.738;9.126;2024-02-28T03:53:46;26.93;;;20.57;;
665;SDS011;315;48.738;9.126;2024-02-28T03:56:11;25.93;;;19.20;;
665;SDS011;315;48.738;9.126;2024-02-28T03:58:37;27.80;;;21.90;;
665;SDS011;315;48.738;9.126;2024-02-28T04:01:03;27.60;;;20.07;;
665;SDS011;315;48.738;9.126;2024-02-28T04:03:28;28.17;;;20.23;;
665;SDS011;315;48.738;9.126;2024-02-28T04:05:54;26.10;;;19.87;;
665;SDS011;315;48.738;9.126;2024-02-28T04:08:19;27.30;;;20.10;;
665;SDS011;315;48.738;9.126;2024-02-28T04:10:45;27.93;;;18.70;;
665;SDS011;315;48.738;9.126;2024-02-28T04:13:10;30.20;;;21.17;;
665;SDS011;315;48.738;9.126;2024-02-28T04:15:36;23.20;;;18.37;;
665;SDS011;315;48.738;9.126;2024-02-28T04:18:03;25.73;;;19.27;;
665;SDS011;315;48.738;9.126;2024-02-28T04:20:29;21.77;;;17.50;;
665;SDS011;315;48.738;9.126;2024-02-28T04:22:54;25.70;;;18.10;;
665;SDS011;315;48.738;9.126;2024-02-28T04:25:20;27.97;;;19.13;;
665;SDS011;315;48.738;9.126;2024-02-28T04:27:45;25.10;;;18.07;;
665;SDS011;315;48.738;9.126;2024-02-28T04:30:12;27.00;;;19.17;;
665;SDS011;315;48.738;9.126;2024-02-28T04:32:37;28.63;;;19.10;;
665;SDS011;315;48.738;9.126;2024-02-28T04:35:03;29.37;;;20.90;;
665;SDS011;315;48.738;9.126;2024-02-28T04:37:29;26.20;;;20.47;;
665;SDS011;315;48.738;9.126;2024-02-28T04:39:54;25.43;;;19.20;;
665;SDS011;315;48.738;9.126;2024-02-28T04:42:20;27.77;;;20.63;;
665;SDS011;315;48.738;9.126;2024-02-28T04:44:45;25.93;;;19.40;;
665;SDS011;315;48.738;9.126;2024-02-28T04:47:11;32.80;;;21.53;;
665;SDS011;315;48.738;9.126;2024-02-28T04:49:37;28.87;;;21.30;;
665;SDS011;315;48.738;9.126;2024-02-28T04:52:03;26.77;;;19.67;;
665;SDS011;315;48.738;9.126;2024-02-28T04:54:30;26.50;;;21.40;;
665;SDS011;315;48.738;9.126;2024-02-28T04:56:55;30.43;;;22.30;;
665;SDS011;315;48.738;9.126;2024-02-28T04:59:21;26.40;;;20.83;;
665;SDS011;315;48.738;9.126;2024-02-28T05:01:46;27.27;;;20.20;;
665;SDS011;315;48.738;9.126;2024-02-28T05:04:13;28.80;;;20.10;;
665;SDS011;315;48.738;9.126;2024-02-28T05:06:38;28.53;;;20.17;;
665;SDS011;315;48.738;9.126;2024-02-28T05:09:04;28.93;;;20.77;;
665;SDS011;315;48.738;9.126;2024-02-28T05:11:30;26.70;;;19.17;;
665;SDS011;315;48.738;9.126;2024-02-28T05:13:55;24.70;;;19.30;;
665;SDS011;315;48.738;9.126;2024-02-28T05:16:21;27.00;;;20.13;;
665;SDS011;315;48.738;9.126;2024-02-28T05:18:46;27.13;;;20.40;;
665;SDS011;315;48.738;9.126;2024-02-28T05:21:12;25.87;;;19.10;;
665;SDS011;315;48.738;9.126;2024-02-28T05:23:39;26.03;;;20.30;;
665;SDS011;315;48.738;9.126;2024-02-28T05:26:05;27.30;;;21.03;;
665;SDS011;315;48.738;9.126;2024-02-28T05:28:32;26.27;;;20.97;;
665;SDS011;315;48.738;9.126;2024-02-28T05:30:59;29.83;;;21.67;;
665;SDS011;315;48.738;9.126;2024-02-28T05:33:27;27.90;;;20.23;;
665;SDS011;315;48.738;9.126;2024-02-28T05:35:53;25.77;;;20.10;;
665;SDS011;315;48.738;9.126;2024-02-28T05:38:19;26.80;;;20.17;;
665;SDS011;315;48.738;9.126;2024-02-28T05:40:44;23.90;;;19.20;;
665;SDS011;315;48.738;9.126;2024-02-28T05:43:10;27.00;;;20.43;;
665;SDS011;315;48.738;9.126;2024-02-28T05:45:35;26.57;;;20.60;;
665;SDS011;315;48.738;9.126;2024-02-28T05:48:01;30.00;;;21.07;;
665;SDS011;315;48.738;9.126;2024-02-28T05:50:26;22.97;;;19.53;;
665;SDS011;315;48.738;9.126;2024-02-28T05:52:52;24.27;;;19.77;;
665;SDS011;315;48.738;9.126;2024-02-28T05:55:17;23.50;;;19.20;;
665;SDS011;315;48.738;9.126;2024-02-28T05:57:43;24.60;;;19.20;;
665;SDS011;315;48.738;9.126;2024-02-28T06:00:08;23.73;;;19.40;;
665;SDS011;315;48.738;9.126;2024-02-28T06:02:35;30.47;;;21.40;;
665;SDS011;315;48.738;9.126;2024-02-28T06:05:02;27.70;;;20.20;;
665;SDS011;315;48.738;9.126;2024-02-28T06:07:28;26.50;;;20.03;;
665;SDS011;315;48.738;9.126;2024-02-28T06:09:53;26.83;;;20.60;;
665;SDS011;315;48.738;9.126;2024-02-28T06:12:19;21.23;;;18.40;;
665;SDS011;315;48.738;9.126;2024-02-28T06:14:44;27.33;;;21.33;;
665;SDS011;315;48.738;9.126;2024-02-28T06:17:10;26.07;;;19.80;;
665;SDS011;315;48.738;9.126;2024-02-28T06:19:35;25.77;;;20.47;;
665;SDS011;315;48.738;9.126;2024-02-28T06:22:00;24.93;;;20.13;;
665;SDS011;315;48.738;9.126;2024-02-28T06:24:26;28.70;;;20.40;;
665;SDS011;315;48.738;9.126;2024-02-28T06:26:52;27.70;;;20.47;;
665;SDS011;315;48.738;9.126;2024-02-28T06:29:17;28.53;;;20.40;;
665;SDS011;315;48.738;9.126;2024-02-28T06:31:43;24.80;;;19.10;;
665;SDS011;315;48.738;9.126;2024-02-28T06:34:08;25.00;;;20.30;;
665;SDS011;315;48.738;9.126;2024-02-28T06:36:34;26.33;;;20.97;;
665;SDS011;315;48.738;9.126;2024-02-28T06:38:59;24.87;;;21.07;;
665;SDS011;315;48.738;9.126;2024-02-28T06:41:25;26.80;;;18.93;;
665;SDS011;315;48.738;9.126;2024-02-28T06:43:50;29.00;;;21.77;;
665;SDS011;315;48.738;9.126;2024-02-28T06:46:16;32.10;;;20.30;;
665;SDS011;315;48.738;9.126;2024-02-28T06:48:42;24.87;;;20.10;;
665;SDS011;315;48.738;9.126;2024-02-28T06:51:08;27.60;;;19.50;;
665;SDS011;315;48.738;9.126;2024-02-28T06:53:33;25.97;;;19.50;;
665;SDS011;315;48.738;9.126;2024-02-28T06:56:00;26.53;;;20.10;;
665;SDS011;315;48.738;9.126;2024-02-28T06:58:26;25.90;;;20.50;;
665;SDS011;315;48.738;9.126;2024-02-28T07:00:52;25.73;;;21.53;;
665;SDS011;315;48.738;9.126;2024-02-28T07:03:17;27.10;;;21.40;;
665;SDS011;315;48.738;9.126;2024-02-28T07:05:43;29.83;;;21.00;;
665;SDS011;315;48.738;9.126;2024-02-28T07:08:08;29.50;;;19.83;;
665;SDS011;315;48.738;9.126;2024-02-28T07:10:36;24.37;;;20.10;;
665;SDS011;315;48.738;9.126;2024-02-28T07:13:01;27.17;;;19.83;;
665;SDS011;315;48.738;9.126;2024-02-28T07:15:27;28.50;;;22.13;;
665;SDS011;315;48.738;9.126;2024-02-28T07:17:52;31.47;;;20.40;;
665;SDS011;315;48.738;9.126;2024-02-28T07:20:18;27.00;;;19.40;;
665;SDS011;315;48.738;9.126;2024-02-28T07:22:44;24.30;;;20.30;;
665;SDS011;315;48.738;9.126;2024-02-28T07:25:09;28.83;;;20.90;;
665;SDS011;315;48.738;9.126;2024-02-28T07:27:35;27.13;;;21.23;;
665;SDS011;315;48.738;9.126;2024-02-28T07:30:01;24.70;;;20.90;;
665;SDS011;315;48.738;9.126;2024-02-28T07:32:28;25.80;;;19.77;;
665;SDS011;315;48.738;9.126;2024-02-28T07:34:53;28.00;;;20.47;;
665;SDS011;315;48.738;9.126;2024-02-28T07:37:20;30.60;;;24.70;;
665;SDS011;315;48.738;9.126;2024-02-28T07:39:45;28.53;;;21.87;;
665;SDS011;315;48.738;9.126;2024-02-28T07:42:12;27.67;;;19.90;;
665;SDS011;315;48.738;9.126;2024-02-28T07:44:37;27.70;;;21.17;;
665;SDS011;315;48.738;9.126;2024-02-28T07:47:05;24.93;;;19.03;;
665;SDS011;315;48.738;9.126;2024-02-28T07:49:31;23.60;;;19.40;;
665;SDS011;315;48.738;9.126;2024-02-28T07:51:56;23.93;;;20.03;;
665;SDS011;315;48.738;9.126;2024-02-28T07:54:22;26.10;;;21.07;;
665;SDS011;315;48.738;9.126;2024-02-28T07:56:48;24.73;;;19.17;;
665;SDS011;315;48.738;9.126;2024-02-28T07:59:13;25.23;;;19.60;;
665;SDS011;315;48.738;9.126;2024-02-28T08:01:39;26.40;;;18.43;;
665;SDS011;315;48.738;9.126;2024-02-28T08:04:04;25.53;;;19.20;;
665;SDS011;315;48.738;9.126;2024-02-28T08:06:30;24.33;;;18.50;;
665;SDS011;315;48.738;9.126;2024-02-28T08:08:58;24.20;;;20.40;;
665;SDS011;315;48.738;9.126;2024-02-28T08:11:23;26.20;;;22.23;;
665;SDS011;315;48.738;9.126;2024-02-28T08:13:50;25.50;;;20.00;;
665;SDS011;315;48.738;9.126;2024-02-28T08:16:16;28.13;;;21.27;;
665;SDS011;315;48.738;9.126;2024-02-28T08:18:41;21.30;;;18.03;;
665;SDS011;315;48.738;9.126;2024-02-28T08:21:07;24.60;;;18.70;;
665;SDS011;315;48.738;9.126;2024-02-28T08:23:34;22.70;;;19.60;;
665;SDS011;315;48.738;9.126;2024-02-28T08:25:59;24.70;;;19.10;;
665;SDS011;315;48.738;9.126;2024-02-28T08:28:25;22.00;;;18.30;;
665;SDS011;315;48.738;9.126;2024-02-28T08:30:50;22.20;;;17.87;;
665;SDS011;315;48.738;9.126;2024-02-28T08:33:16;22.70;;;18.63;;
665;SDS011;315;48.738;9.126;2024-02-28T08:35:42;24.23;;;17.23;;
665;SDS011;315;48.738;9.126;2024-02-28T08:38:08;24.70;;;19.77;;
665;SDS011;315;48.738;9.126;2024-02-28T08:40:33;23.30;;;18.63;;
665;SDS011;315;48.738;9.126;2024-02-28T08:42:59;24.43;;;19.17;;
665;SDS011;315;48.738;9.126;2024-02-28T08:45:24;27.23;;;20.87;;
665;SDS011;315;48.738;9.126;2024-02-28T08:47:50;27.90;;;21.80;;
665;SDS011;315;48.738;9.126;2024-02-28T08:50:15;26.63;;;20.50;;
665;SDS011;315;48.738;9.126;2024-02-28T08:52:41;24.60;;;19.93;;
665;SDS011;315;48.738;9.126;2024-02-28T08:55:06;26.67;;;20.40;;
665;SDS011;315;48.738;9.126;2024-02-28T08:57:32;26.37;;;21.07;;
665;SDS011;315;48.738;9.126;2024-02-28T08:59:59;26.53;;;21.13;;
665;SDS011;315;48.738;9.126;2024-02-28T09:02:24;29.53;;;22.13;;
665;SDS011;315;48.738;9.126;2024-02-28T09:04:50;28.40;;;20.40;;
665;SDS011;315;48.738;9.126;2024-02-28T09:07:18;31.07;;;23.53;;
665;SDS011;315;48.738;9.126;2024-02-28T09:09:46;27.77;;;19.63;;
665;SDS011;315;48.738;9.126;2024-02-28T09:12:12;26.50;;;19.87;;
665;SDS011;315;48.738;9.126;2024-02-28T09:14:38;28.23;;;20.70;;
665;SDS011;315;48.738;9.126;2024-02-28T09:17:04;30.13;;;22.97;;
665;SDS011;315;48.738;9.126;2024-02-28T09:19:30;32.70;;;22.10;;
665;SDS011;315;48.738;9.126;2024-02-28T09:21:56;31.70;;;21.90;;
665;SDS011;315;48.738;9.126;2024-02-28T09:24:22;29.60;;;21.13;;
665;SDS011;315;48.738;9.126;2024-02-28T09:26:48;28.20;;;23.00;;
665;SDS011;315;48.738;9.126;2024-02-28T09:29:14;28.40;;;22.07;;
665;SDS011;315;48.738;9.126;2024-02-28T09:31:39;28.83;;;23.00;;
665;SDS011;315;48.738;9.126;2024-02-28T09:34:05;27.97;;;21.40;;
665;SDS011;315;48.738;9.126;2024-02-28T09:36:32;27.47;;;20.90;;
665;SDS011;315;48.738;9.126;2024-02-28T09:39:05;28.70;;;21.70;;
665;SDS011;315;48.738;9.126;2024-02-28T09:41:30;31.73;;;25.77;;
665;SDS011;315;48.738;9.126;2024-02-28T09:43:56;28.30;;;20.90;;
665;SDS011;315;48.738;9.126;2024-02-28T09:46:22;27.17;;;20.30;;
665;SDS011;315;48.738;9.126;2024-02-28T09:48:48;26.63;;;20.80;;
665;SDS011;315;48.738;9.126;2024-02-28T09:51:15;32.20;;;22.30;;
665;SDS011;315;48.738;9.126;2024-02-28T09:53:43;26.33;;;20.77;;
665;SDS011;315;48.738;9.126;2024-02-28T09:56:09;26.17;;;20.10;;
665;SDS011;315;48.738;9.126;2024-02-28T09:58:36;30.67;;;20.80;;
665;SDS011;315;48.738;9.126;2024-02-28T10:01:03;25.17;;;20.20;;
665;SDS011;315;48.738;9.126;2024-02-28T10:03:34;24.57;;;19.43;;
665;SDS011;315;48.738;9.126;2024-02-28T10:06:01;20.80;;;17.80;;
665;SDS011;315;48.738;9.126;2024-02-28T10:08:27;23.67;;;17.90;;
665;SDS011;315;48.738;9.126;2024-02-28T10:10:54;28.07;;;19.20;;
665;SDS011;315;48.738;9.126;2024-02-28T10:13:21;25.57;;;21.47;;
665;SDS011;315;48.738;9.126;2024-02-28T10:15:50;21.93;;;17.70;;
665;SDS011;315;48.738;9.126;2024-02-28T10:18:15;22.30;;;17.93;;
665;SDS011;315;48.738;9.126;2024-02-28T10:20:41;20.17;;;16.13;;
665;SDS011;315;48.738;9.126;2024-02-28T10:23:07;23.27;;;18.17;;
665;SDS011;315;48.738;9.126;2024-02-28T10:25:55;22.10;;;17.60;;
665;SDS011;315;48.738;9.126;2024-02-28T10:28:21;22.93;;;16.57;;
665;SDS011;315;48.738;9.126;2024-02-28T10:30:46;22.33;;;17.73;;
665;SDS011;315;48.738;9.126;2024-02-28T10:33:12;23.83;;;19.57;;
665;SDS011;315;48.738;9.126;2024-02-28T10:35:41;21.57;;;17.63;;
665;SDS011;315;48.738;9.126;2024-02-28T10:38:12;24.00;;;21.03;;
665;SDS011;315;48.738;9.126;2024-02-28T10:40:41;23.37;;;17.67;;
665;SDS011;315;48.738;9.126;2024-02-28T10:43:07;23.80;;;16.80;;
665;SDS011;315;48.738;9.126;2024-02-28T10:45:35;21.30;;;16.57;;
665;SDS011;315;48.738;9.126;2024-02-28T10:48:02;26.33;;;19.43;;
665;SDS011;315;48.738;9.126;2024-02-28T10:50:28;25.17;;;18.33;;
665;SDS011;315;48.738;9.126;2024-02-28T10:52:54;23.07;;;17.83;;
665;SDS011;315;48.738;9.126;2024-02-28T10:55:25;21.90;;;17.63;;
665;SDS011;315;48.738;9.126;2024-02-28T10:58:00;25.00;;;18.97;;
665;SDS011;315;48.738;9.126;2024-02-28T11:00:28;23.13;;;18.63;;
665;SDS011;315;48.738;9.126;2024-02-28T11:02:55;22.07;;;18.73;;
665;SDS011;315;48.738;9.126;2024-02-28T11:05:34;23.50;;;17.87;;
665;SDS011;315;48.738;9.126;2024-02-28T11:08:01;26.00;;;20.00;;
665;SDS011;315;48.738;9.126;2024-02-28T11:10:33;23.80;;;18.57;;
665;SDS011;315;48.738;9.126;2024-02-28T11:12:58;23.43;;;17.43;;
665;SDS011;315;48.738;9.126;2024-02-28T11:15:24;20.23;;;17.40;;
665;SDS011;315;48.738;9.126;2024-02-28T11:17:52;20.83;;;18.03;;
665;SDS011;315;48.738;9.126;2024-02-28T11:20:17;21.53;;;16.70;;
665;SDS011;315;48.738;9.126;2024-02-28T11:22:43;24.03;;;17.63;;
665;SDS011;315;48.738;9.126;2024-02-28T11:25:09;20.13;;;15.67;;
665;SDS011;315;48.738;9.126;2024-02-28T11:27:44;20.20;;;16.17;;
665;SDS011;315;48.738;9.126;2024-02-28T11:30:11;22.60;;;18.93;;
665;SDS011;315;48.738;9.126;2024-02-28T11:32:38;21.60;;;17.40;;
665;SDS011;315;48.738;9.126;2024-02-28T11:35:03;23.50;;;18.80;;
665;SDS011;315;48.738;9.126;2024-02-28T11:37:29;23.13;;;18.17;;
665;SDS011;315;48.738;9.126;2024-02-28T11:39:55;23.90;;;18.87;;
665;SDS011;315;48.738;9.126;2024-02-28T11:42:20;25.30;;;19.10;;
665;SDS011;315;48.738;9.126;2024-02-28T11:44:55;23.43;;;17.93;;
665;SDS011;315;48.738;9.126;2024-02-28T11:47:22;24.43;;;19.00;;
665;SDS011;315;48.738;9.126;2024-02-28T11:49:48;20.73;;;16.77;;
665;SDS011;315;48.738;9.126;2024-02-28T11:52:14;21.83;;;17.70;;
665;SDS011;315;48.738;9.126;2024-02-28T11:54:40;19.60;;;16.37;;
665;SDS011;315;48.738;9.126;2024-02-28T11:57:07;21.10;;;16.63;;
665;SDS011;315;48.738;9.126;2024-02-28T11:59:35;24.57;;;16.97;;
665;SDS011;315;48.738;9.126;2024-02-28T12:02:10;21.83;;;16.60;;
665;SDS011;315;48.738;9.126;2024-02-28T12:04:41;22.23;;;18.50;;
665;SDS011;315;48.738;9.126;2024-02-28T12:07:07;25.93;;;17.97;;
665;SDS011;315;48.738;9.126;2024-02-28T12:09:33;19.80;;;17.70;;
665;SDS011;315;48.738;9.126;2024-02-28T12:12:02;21.43;;;17.57;;
665;SDS011;315;48.738;9.126;2024-02-28T12:14:32;18.67;;;15.70;;
665;SDS011;315;48.738;9.126;2024-02-28T12:17:01;21.37;;;17.97;;
665;SDS011;315;48.738;9.126;2024-02-28T12:19:28;21.80;;;16.17;;
665;SDS011;315;48.738;9.126;2024-02-28T12:21:54;31.50;;;18.33;;
665;SDS011;315;48.738;9.126;2024-02-28T12:24:20;23.77;;;18.67;;
665;SDS011;315;48.738;9.126;2024-02-28T12:26:46;18.47;;;16.10;;
665;SDS011;315;48.738;9.126;2024-02-28T12:29:11;20.30;;;16.40;;
665;SDS011;315;48.738;9.126;2024-02-28T12:31:37;20.13;;;17.50;;
665;SDS011;315;48.738;9.126;2024-02-28T12:34:03;25.40;;;17.50;;
665;SDS011;315;48.738;9.126;2024-02-28T12:36:29;22.80;;;18.37;;
665;SDS011;315;48.738;9.126;2024-02-28T12:38:56;24.70;;;19.07;;
665;SDS011;315;48.738;9.126;2024-02-28T12:41:21;20.23;;;16.50;;
665;SDS011;315;48.738;9.126;2024-02-28T12:43:47;20.33;;;16.03;;
665;SDS011;315;48.738;9.126;2024-02-28T12:46:12;20.70;;;16.87;;
665;SDS011;315;48.738;9.126;2024-02-28T12:48:38;22.40;;;17.60;;
665;SDS011;315;48.738;9.126;2024-02-28T12:51:05;21.00;;;16.77;;
665;SDS011;315;48.738;9.126;2024-02-28T12:53:31;17.13;;;15.33;;
665;SDS011;315;48.738;9.126;2024-02-28T12:55:57;20.30;;;17.30;;
665;SDS011;315;48.738;9.126;2024-02-28T12:58:23;21.63;;;17.80;;
665;SDS011;315;48.738;9.126;2024-02-28T13:00:49;22.77;;;17.50;;
665;SDS011;315;48.738;9.126;2024-02-28T13:03:14;21.00;;;18.03;;
665;SDS011;315;48.738;9.126;2024-02-28T13:05:41;19.33;;;17.23;;
665;SDS011;315;48.738;9.126;2024-02-28T13:08:06;23.00;;;17.57;;
665;SDS011;315;48.738;9.126;2024-02-28T13:10:32;22.07;;;18.00;;
665;SDS011;315;48.738;9.126;2024-02-28T13:13:00;20.50;;;17.50;;
665;SDS011;315;48.738;9.126;2024-02-28T13:15:27;20.97;;;16.87;;
665;SDS011;315;48.738;9.126;2024-02-28T13:17:52;22.33;;;16.03;;
665;SDS011;315;48.738;9.126;2024-02-28T13:20:18;21.27;;;17.33;;
665;SDS011;315;48.738;9.126;2024-02-28T13:22:43;20.70;;;16.90;;
665;SDS011;315;48.738;9.126;2024-02-28T13:25:09;20.40;;;17.50;;
665;SDS011;315;48.738;9.126;2024-02-28T13:27:36;24.93;;;17.37;;
665;SDS011;315;48.738;9.126;2024-02-28T13:30:02;23.00;;;17.73;;
665;SDS011;315;48.738;9.126;2024-02-28T13:32:28;20.10;;;17.40;;
665;SDS011;315;48.738;9.126;2024-02-28T13:34:54;21.80;;;17.70;;
665;SDS011;315;48.738;9.126;2024-02-28T13:37:19;18.70;;;16.30;;
665;SDS011;315;48.738;9.126;2024-02-28T13:39:45;20.20;;;16.73;;
665;SDS011;315;48.738;9.126;2024-02-28T13:42:11;19.70;;;15.87;;
665;SDS011;315;48.738;9.126;2024-02-28T13:44:37;21.50;;;15.57;;
665;SDS011;315;48.738;9.126;2024-02-28T13:47:03;20.27;;;15.63;;
665;SDS011;315;48.738;9.126;2024-02-28T13:49:29;25.10;;;16.03;;
665;SDS011;315;48.738;9.126;2024-02-28T13:51:54;22.47;;;15.90;;
665;SDS011;315;48.738;9.126;2024-02-28T13:54:20;19.90;;;17.10;;
665;SDS011;315;48.738;9.126;2024-02-28T13:56:46;20.83;;;17.27;;
665;SDS011;315;48.738;9.126;2024-02-28T13:59:11;21.60;;;16.07;;
665;SDS011;315;48.738;9.126;2024-02-28T14:01:37;21.20;;;16.03;;
665;SDS011;315;48.738;9.126;2024-02-28T14:04:03;20.83;;;16.80;;
665;SDS011;315;48.738;9.126;2024-02-28T14:06:29;21.87;;;16.27;;
665;SDS011;315;48.738;9.126;2024-02-28T14:08:55;20.03;;;16.00;;
665;SDS011;315;48.738;9.126;2024-02-28T14:11:21;20.23;;;15.30;;
665;SDS011;315;48.738;9.126;2024-02-28T14:13:47;21.03;;;17.23;;
665;SDS011;315;48.738;9.126;2024-02-28T14:16:13;21.73;;;15.63;;
665;SDS011;315;48.738;9.126;2024-02-28T14:18:38;17.00;;;14.83;;
665;SDS011;315;48.738;9.126;2024-02-28T14:21:04;20.73;;;15.57;;
665;SDS011;315;48.738;9.126;2024-02-28T14:23:30;19.83;;;16.70;;
665;SDS011;315;48.738;9.126;2024-02-28T14:25:55;24.57;;;16.40;;
665;SDS011;315;48.738;9.126;2024-02-28T14:28:21;19.50;;;16.10;;
665;SDS011;315;48.738;9.126;2024-02-28T14:30:49;21.90;;;17.90;;
665;SDS011;315;48.738;9.126;2024-02-28T14:33:15;22.33;;;18.17;;
665;SDS011;315;48.738;9.126;2024-02-28T14:35:41;40.70;;;30.80;;
665;SDS011;315;48.738;9.126;2024-02-28T14:38:07;37.20;;;26.80;;
665;SDS011;315;48.738;9.126;2024-02-28T14:40:32;21.83;;;18.10;;
665;SDS011;315;48.738;9.126;2024-02-28T14:42:58;22.33;;;17.90;;
665;SDS011;315;48.738;9.126;2024-02-28T14:45:23;22.73;;;19.30;;
665;SDS011;315;48.738;9.126;2024-02-28T14:47:53;18.00;;;15.47;;
665;SDS011;315;48.738;9.126;2024-02-28T14:50:19;26.93;;;17.87;;
665;SDS011;315;48.738;9.126;2024-02-28T14:52:45;24.60;;;17.37;;
665;SDS011;315;48.738;9.126;2024-02-28T14:55:11;23.63;;;17.70;;
665;SDS011;315;48.738;9.126;2024-02-28T14:57:37;21.10;;;16.27;;
665;SDS011;315;48.738;9.126;2024-02-28T15:00:03;23.10;;;18.90;;
665;SDS011;315;48.738;9.126;2024-02-28T15:02:33;24.20;;;18.60;;
665;SDS011;315;48.738;9.126;2024-02-28T15:05:01;23.83;;;17.70;;
665;SDS011;315;48.738;9.126;2024-02-28T15:07:30;24.57;;;16.93;;